Time;durP1;ratioP1;P1;durP2;ratioP2;P2;SDS_P1;SDS_P2;PMS_P1;PMS_P2;Temp;Humidity;BMP_temperature;BMP_pressure;BME280_temperature;BME280_humidity;BME280_pressure;Samples;Min_cycle;Max_cycle;Signal;HPM_P1;HPM_P2
2023/05/30 00:03:37;;;;;;;8.57;2.75;;;13.70;92.40;;;;;;10247314;28;20289;-83
2023/05/30 00:08:42;;;;;;;9.50;2.55;;;13.70;92.60;;;;;;10246731;28;20267;-83
2023/05/30 00:13:45;;;;;;;2.30;1.90;;;13.80;91.30;;;;;;10247351;28;20765;-83
2023/05/30 00:18:47;;;;;;;5.55;2.33;;;13.70;91.70;;;;;;10245631;28;20323;-83
2023/05/30 00:23:50;;;;;;;10.70;2.47;;;13.80;90.40;;;;;;10225848;28;20685;-83
2023/05/30 00:28:52;;;;;;;4.57;1.73;;;13.90;90.30;;;;;;10230587;28;20242;-83
2023/05/30 00:33:55;;;;;;;4.90;1.85;;;13.90;92.90;;;;;;10247942;28;20687;-83
2023/05/30 00:38:58;;;;;;;6.10;1.65;;;13.90;90.80;;;;;;10229004;28;20257;-83
2023/05/30 00:44:01;;;;;;;5.97;1.80;;;13.90;92.10;;;;;;10228685;28;20316;-83
2023/05/30 00:49:04;;;;;;;4.22;2.88;;;13.90;91.30;;;;;;10229807;28;20347;-83
2023/05/30 00:54:07;;;;;;;4.43;1.73;;;13.80;92.40;;;;;;10230210;28;20241;-83
2023/05/30 00:59:10;;;;;;;4.38;1.55;;;13.70;91.40;;;;;;10212892;28;20234;-83
2023/05/30 01:04:12;;;;;;;5.00;2.03;;;13.60;91.70;;;;;;10228525;28;20337;-83
2023/05/30 01:09:15;;;;;;;5.65;2.08;;;13.60;91.50;;;;;;10246472;28;20237;-83
2023/05/30 01:14:25;;;;;;;7.03;2.05;;;13.50;90.50;;;;;;10228049;28;20304;-83
2023/05/30 01:19:45;;;;;;;3.72;2.13;;;13.30;91.80;;;;;;10216458;28;20231;-83
2023/05/30 01:25:21;;;;;;;8.05;1.90;;;13.20;91.90;;;;;;10226566;28;20686;-83
2023/05/30 01:30:26;;;;;;;5.55;2.00;;;13.10;91.80;;;;;;10211948;28;20233;-83
2023/05/30 01:35:28;;;;;;;9.10;2.30;;;13.00;92.30;;;;;;10245160;28;20237;-83
2023/05/30 01:40:35;;;;;;;5.70;2.20;;;13.00;93.30;;;;;;10225959;28;20270;-83
2023/05/30 01:46:06;;;;;;;4.78;1.42;;;12.90;93.70;;;;;;10228255;28;21052;-82
2023/05/30 01:51:14;;;;;;;4.70;1.58;;;12.90;94.50;;;;;;10221236;28;20635;-83
2023/05/30 01:56:18;;;;;;;7.10;2.78;;;12.70;94.20;;;;;;10245532;28;20300;-84
2023/05/30 02:01:26;;;;;;;5.82;2.10;;;12.30;91.00;;;;;;10226841;28;20392;-83
2023/05/30 02:06:29;;;;;;;4.75;1.98;;;11.90;94.00;;;;;;10227211;28;20328;-83
2023/05/30 02:11:32;;;;;;;10.68;3.53;;;11.70;95.90;;;;;;10226386;28;20242;-83
2023/05/30 02:16:35;;;;;;;5.50;1.90;;;11.50;96.40;;;;;;10244089;28;20722;-83
2023/05/30 02:21:39;;;;;;;4.03;1.60;;;11.50;97.10;;;;;;10235318;28;20245;-83
2023/05/30 02:26:42;;;;;;;8.35;2.15;;;11.60;97.80;;;;;;10247790;28;20269;-83
2023/05/30 02:31:44;;;;;;;3.25;1.75;;;11.60;97.70;;;;;;10234519;28;20766;-83
2023/05/30 02:36:47;;;;;;;3.28;2.13;;;11.30;97.50;;;;;;10234551;28;20699;-83
2023/05/30 02:41:52;;;;;;;9.38;2.05;;;11.40;99.90;;;;;;10232175;28;20242;-83
2023/05/30 02:46:55;;;;;;;2.83;1.60;;;11.50;98.60;;;;;;10234596;28;20257;-83
2023/05/30 02:51:58;;;;;;;2.83;1.50;;;11.50;99.50;;;;;;10234055;28;20596;-83
2023/05/30 02:57:06;;;;;;;4.20;1.80;;;11.50;99.60;;;;;;10233616;28;20298;-83
2023/05/30 03:02:30;;;;;;;6.93;1.98;;;11.60;98.90;;;;;;10237885;28;20269;-83
2023/05/30 03:07:35;;;;;;;4.65;1.85;;;11.40;99.90;;;;;;10197036;29;20246;-83
2023/05/30 03:12:40;;;;;;;7.85;2.47;;;11.50;99.90;;;;;;10214655;28;20580;-83
2023/05/30 03:17:42;;;;;;;4.93;2.08;;;11.10;99.90;;;;;;10232474;28;20249;-83
2023/05/30 03:22:47;;;;;;;5.28;2.15;;;11.20;99.90;;;;;;10230381;28;20328;-83
2023/05/30 03:27:50;;;;;;;3.78;1.60;;;10.90;99.90;;;;;;10232827;28;20206;-83
2023/05/30 03:32:57;;;;;;;3.15;1.50;;;10.90;99.90;;;;;;10213109;28;20246;-83
2023/05/30 03:38:00;;;;;;;3.90;1.77;;;11.00;99.90;;;;;;10193501;29;20726;-82
2023/05/30 03:43:03;;;;;;;5.50;1.70;;;11.20;99.90;;;;;;10226251;28;20298;-83
2023/05/30 03:48:06;;;;;;;11.25;2.83;;;11.30;99.90;;;;;;10216471;28;20214;-83
2023/05/30 03:53:08;;;;;;;5.13;2.88;;;11.30;99.90;;;;;;10249494;28;20254;-83
2023/05/30 03:58:11;;;;;;;6.32;2.78;;;11.50;99.90;;;;;;10195279;29;20636;-83
2023/05/30 04:03:19;;;;;;;4.22;1.67;;;11.80;99.90;;;;;;10248458;28;20668;-83
2023/05/30 04:08:25;;;;;;;6.18;2.53;;;12.00;99.90;;;;;;10249504;28;20242;-83
2023/05/30 04:13:28;;;;;;;6.03;2.28;;;12.00;98.50;;;;;;10212883;28;20265;-83
2023/05/30 04:18:31;;;;;;;4.45;2.40;;;12.00;99.90;;;;;;10230910;28;20717;-83
2023/05/30 04:23:33;;;;;;;3.03;1.75;;;12.10;99.30;;;;;;10222894;28;20735;-83
2023/05/30 04:28:39;;;;;;;5.40;1.80;;;12.30;99.90;;;;;;10229970;28;20249;-83
2023/05/30 04:33:45;;;;;;;7.38;1.85;;;12.70;99.80;;;;;;10230823;28;20262;-83
2023/05/30 04:38:49;;;;;;;3.83;2.03;;;12.80;98.20;;;;;;10245219;28;20274;-83
2023/05/30 04:43:57;;;;;;;5.72;2.22;;;12.80;97.50;;;;;;10240028;28;20258;-83
2023/05/30 04:49:00;;;;;;;9.27;2.60;;;12.90;97.70;;;;;;10210019;28;20704;-82
2023/05/30 04:54:07;;;;;;;7.60;2.30;;;13.20;97.00;;;;;;10230131;28;20233;-83
2023/05/30 04:59:10;;;;;;;4.75;2.15;;;13.00;96.10;;;;;;10246641;28;20278;-83
2023/05/30 05:04:12;;;;;;;6.63;2.08;;;12.70;94.60;;;;;;10228857;28;20269;-83
2023/05/30 05:09:15;;;;;;;9.00;1.88;;;13.00;94.00;;;;;;10247140;28;20619;-83
2023/05/30 05:14:18;;;;;;;4.65;1.77;;;13.10;94.50;;;;;;10218663;28;20691;-84
2023/05/30 05:19:20;;;;;;;7.85;1.90;;;13.20;93.70;;;;;;10224408;28;20309;-82
2023/05/30 05:24:23;;;;;;;4.63;2.00;;;13.40;94.00;;;;;;10219104;29;20637;-88
2023/05/30 05:29:25;;;;;;;5.50;1.83;;;13.50;94.40;;;;;;10239247;28;20245;-87
2023/05/30 05:34:28;;;;;;;7.75;2.35;;;13.70;94.40;;;;;;10246573;28;20253;-85
2023/05/30 05:39:30;;;;;;;5.72;2.15;;;13.90;93.20;;;;;;10229014;28;20306;-83
2023/05/30 05:44:34;;;;;;;5.97;1.55;;;14.10;91.60;;;;;;10244746;28;20265;-82
2023/05/30 05:49:36;;;;;;;6.70;2.17;;;14.20;92.10;;;;;;10241906;28;20699;-81
2023/05/30 05:54:39;;;;;;;8.25;1.92;;;14.50;91.20;;;;;;10241274;28;20225;-81
2023/05/30 05:59:41;;;;;;;8.45;2.17;;;14.70;88.60;;;;;;10215215;28;20637;-81
2023/05/30 06:04:44;;;;;;;11.32;2.00;;;14.70;85.30;;;;;;10229990;28;20277;-81
2023/05/30 06:09:48;;;;;;;4.57;1.77;;;;;;;;;;10181458;29;20295;-82
2023/05/30 06:14:50;;;;;;;7.50;1.77;;;14.90;84.20;;;;;;10213411;29;20616;-82
2023/05/30 06:19:53;;;;;;;8.90;1.98;;;15.10;83.50;;;;;;10213947;29;20239;-82
2023/05/30 06:24:56;;;;;;;5.53;1.70;;;15.10;81.70;;;;;;10196073;29;20803;-82
2023/05/30 06:29:58;;;;;;;5.55;1.70;;;15.30;82.30;;;;;;10213522;29;20289;-81
2023/05/30 06:35:01;;;;;;;6.80;1.90;;;15.30;77.90;;;;;;10212534;29;20321;-81
2023/05/30 06:40:04;;;;;;;8.27;1.65;;;15.50;78.60;;;;;;10208343;28;20320;-81
2023/05/30 06:45:07;;;;;;;6.72;1.83;;;15.60;75.00;;;;;;10228075;28;20257;-81
2023/05/30 06:50:09;;;;;;;5.53;1.80;;;15.70;76.30;;;;;;10198024;29;20266;-82
2023/05/30 06:55:13;;;;;;;8.07;2.03;;;15.80;71.80;;;;;;10230673;28;20238;-81
2023/05/30 07:00:16;;;;;;;8.88;2.50;;;16.00;66.60;;;;;;10229111;28;20243;-81
2023/05/30 07:05:19;;;;;;;4.43;1.75;;;16.00;57.90;;;;;;10211955;28;20646;-81
2023/05/30 07:10:21;;;;;;;5.53;2.10;;;16.00;62.30;;;;;;10213380;28;20285;-81
2023/05/30 07:15:25;;;;;;;6.70;2.33;;;16.10;62.90;;;;;;10229134;28;20759;-81
2023/05/30 07:20:28;;;;;;;7.60;2.25;;;16.10;55.80;;;;;;10227298;28;20942;-81
2023/05/30 07:25:30;;;;;;;5.32;1.67;;;16.20;53.60;;;;;;10227503;28;20262;-81
2023/05/30 07:30:33;;;;;;;8.93;2.17;;;16.30;55.90;;;;;;10229541;28;20305;-81
2023/05/30 07:35:36;;;;;;;5.28;2.10;;;16.60;54.40;;;;;;10210515;28;20242;-81
2023/05/30 07:40:38;;;;;;;3.03;1.67;;;16.90;55.90;;;;;;10229599;28;20371;-81
2023/05/30 07:45:41;;;;;;;4.82;1.73;;;17.40;63.30;;;;;;10231901;28;20298;-81
2023/05/30 07:50:43;;;;;;;7.90;2.08;;;17.40;55.10;;;;;;10249931;28;20300;-81
2023/05/30 07:55:58;;;;;;;3.70;1.40;;;17.60;58.30;;;;;;10234265;29;20242;-81
2023/05/30 08:01:01;;;;;;;3.45;1.52;;;17.80;44.90;;;;;;10232266;28;20218;-81
2023/05/30 08:06:03;;;;;;;2.92;1.55;;;17.90;48.30;;;;;;10248816;28;20270;-81
2023/05/30 08:11:06;;;;;;;10.10;1.40;;;17.90;43.50;;;;;;10231627;28;20328;-81
2023/05/30 08:16:10;;;;;;;6.53;1.40;;;17.90;32.20;;;;;;10231057;28;20238;-80
2023/05/30 08:21:14;;;;;;;5.43;1.25;;;17.80;29.00;;;;;;10248968;28;20312;-81
2023/05/30 08:26:16;;;;;;;3.28;1.15;;;17.90;30.50;;;;;;10248860;28;20639;-81
2023/05/30 08:31:19;;;;;;;2.95;1.05;;;18.10;32.00;;;;;;10230197;28;20246;-81
2023/05/30 08:36:22;;;;;;;2.88;1.27;;;18.30;37.30;;;;;;10230611;28;20242;-81
2023/05/30 08:41:25;;;;;;;4.25;1.90;;;18.50;38.90;;;;;;10247719;28;20325;-81
2023/05/30 08:46:28;;;;;;;5.93;1.38;;;18.30;27.60;;;;;;10247776;28;20265;-81
2023/05/30 08:51:32;;;;;;;3.78;1.63;;;18.30;33.70;;;;;;10230728;28;20241;-81
2023/05/30 08:56:39;;;;;;;2.55;1.42;;;18.40;33.50;;;;;;10230172;28;20242;-81
2023/05/30 09:01:43;;;;;;;3.20;1.13;;;18.80;36.50;;;;;;10247252;28;20292;-81
2023/05/30 09:06:47;;;;;;;4.18;1.15;;;18.60;27.90;;;;;;10247041;28;20285;-81
2023/05/30 09:11:53;;;;;;;5.32;1.08;;;18.70;34.30;;;;;;10246579;28;20266;-81
2023/05/30 09:16:56;;;;;;;1.50;0.98;;;18.70;24.90;;;;;;10229338;28;20313;-81
2023/05/30 09:21:58;;;;;;;1.40;0.80;;;18.70;23.10;;;;;;10247023;28;20293;-81
2023/05/30 09:27:02;;;;;;;3.83;1.75;;;18.80;28.70;;;;;;10229566;28;20313;-81
2023/05/30 09:32:05;;;;;;;2.25;1.20;;;18.90;21.10;;;;;;10246519;28;20312;-81
2023/05/30 09:37:08;;;;;;;9.98;1.30;;;19.00;25.70;;;;;;10229251;28;20249;-80
2023/05/30 09:42:10;;;;;;;1.67;1.08;;;19.10;18.90;;;;;;10246360;28;20269;-81
2023/05/30 09:47:13;;;;;;;4.28;0.98;;;19.10;25.60;;;;;;10246415;28;20266;-82
2023/05/30 09:52:15;;;;;;;2.40;0.95;;;19.10;25.50;;;;;;10228955;28;20273;-81
2023/05/30 09:57:18;;;;;;;2.97;1.10;;;19.10;21.30;;;;;;10233355;28;20235;-81
2023/05/30 10:02:22;;;;;;;2.15;1.10;;;19.30;22.80;;;;;;10225550;28;20649;-81
2023/05/30 10:07:25;;;;;;;8.18;2.05;;;;;;;;;;10228452;28;20794;-81
2023/05/30 10:12:29;;;;;;;6.72;0.95;;;19.60;21.90;;;;;;10227807;28;20627;-81
2023/05/30 10:17:35;;;;;;;8.52;1.55;;;19.50;23.20;;;;;;10245319;28;20329;-80
2023/05/30 10:22:44;;;;;;;1.10;0.70;;;19.50;17.30;;;;;;10228672;28;20245;-81
2023/05/30 10:27:52;;;;;;;2.67;1.25;;;;;;;;;;10228438;28;20312;-80
2023/05/30 10:33:07;;;;;;;6.47;1.35;;;19.60;17.00;;;;;;10228215;28;20325;-81
2023/05/30 10:38:11;;;;;;;2.78;1.30;;;19.60;19.90;;;;;;10247409;28;20609;-81
2023/05/30 10:43:17;;;;;;;2.55;1.10;;;19.70;26.20;;;;;;10252527;28;20238;-81
2023/05/30 10:48:28;;;;;;;5.35;1.52;;;19.60;18.20;;;;;;10251371;28;20293;-81
2023/05/30 10:53:44;;;;;;;1.42;1.00;;;19.90;22.00;;;;;;10252198;28;20601;-81
2023/05/30 10:58:47;;;;;;;2.05;1.15;;;19.80;19.60;;;;;;10252088;28;20245;-80
2023/05/30 11:03:55;;;;;;;2.97;0.85;;;19.90;15.00;;;;;;10251806;28;20285;-81
2023/05/30 11:09:09;;;;;;;2.00;1.17;;;20.10;18.00;;;;;;10234590;28;20710;-81
2023/05/30 11:14:14;;;;;;;3.30;1.13;;;20.10;20.40;;;;;;10234297;28;20304;-80
2023/05/30 11:19:19;;;;;;;8.05;1.40;;;20.10;17.50;;;;;;10250468;28;20241;-81
2023/05/30 11:24:23;;;;;;;1.73;1.33;;;20.10;14.60;;;;;;10233536;28;20254;-80
2023/05/30 11:29:53;;;;;;;1.92;1.00;;;20.30;17.40;;;;;;10250327;28;20222;-81
2023/05/30 11:35:00;;;;;;;1.95;0.63;;;20.30;14.00;;;;;;10232756;29;20245;-81
2023/05/30 11:40:12;;;;;;;3.65;1.17;;;20.60;21.70;;;;;;10250325;29;20269;-81
2023/05/30 11:45:16;;;;;;;9.05;2.28;;;20.60;16.50;;;;;;10249778;29;20265;-81
2023/05/30 11:50:20;;;;;;;2.75;1.25;;;20.90;16.90;;;;;;10248413;28;20661;-80
2023/05/30 11:55:22;;;;;;;7.00;1.73;;;20.90;11.70;;;;;;10232045;29;20301;-80
2023/05/30 12:00:25;;;;;;;3.65;1.40;;;20.70;10.70;;;;;;10232134;29;20695;-81
2023/05/30 12:05:28;;;;;;;5.38;0.98;;;20.80;15.10;;;;;;10231512;29;20265;-81
2023/05/30 12:10:31;;;;;;;2.15;1.27;;;21.00;13.10;;;;;;10232123;29;20241;-81
2023/05/30 12:15:36;;;;;;;1.95;1.20;;;21.00;13.40;;;;;;10249397;29;20242;-81
2023/05/30 12:20:45;;;;;;;3.65;1.15;;;21.10;10.80;;;;;;10231990;29;20277;-81
2023/05/30 12:25:54;;;;;;;1.73;0.90;;;;;;;;;;10248837;29;20710;-81
2023/05/30 12:30:57;;;;;;;1.95;0.88;;;21.40;16.40;;;;;;10226317;29;20288;-82
2023/05/30 12:36:00;;;;;;;4.82;1.60;;;;;;;;;;10223882;28;20234;-81
2023/05/30 12:41:06;;;;;;;1.75;1.25;;;;;;;;;;10169923;29;20833;-81
2023/05/30 12:46:08;;;;;;;9.00;1.60;;;;;;;;;;10182349;29;20717;-81
2023/05/30 12:51:12;;;;;;;5.28;2.00;;;;;;;;;;10196112;29;20664;-82
2023/05/30 12:56:14;;;;;;;2.88;1.02;;;;;;;;;;10207356;29;20242;-82
2023/05/30 13:01:17;;;;;;;2.60;1.50;;;;;;;;;;10207678;29;20280;-81
2023/05/30 13:06:20;;;;;;;7.00;1.15;;;;;;;;;;10190730;29;20333;-81
2023/05/30 13:11:23;;;;;;;3.55;1.65;;;;;;;;;;10205573;29;20246;-82
2023/05/30 13:16:26;;;;;;;1.45;1.00;;;;;;;;;;10204826;29;20617;-81
2023/05/30 13:21:29;;;;;;;4.85;2.10;;;21.80;13.40;;;;;;10206753;29;20239;-82
2023/05/30 13:26:32;;;;;;;2.63;1.40;;;21.80;16.10;;;;;;10206770;29;20317;-82
2023/05/30 13:31:35;;;;;;;1.27;0.95;;;21.90;15.30;;;;;;10205301;29;20294;-82
2023/05/30 13:36:38;;;;;;;3.22;1.15;;;21.90;15.70;;;;;;10188679;29;20695;-82
2023/05/30 13:41:40;;;;;;;4.45;1.00;;;21.90;15.30;;;;;;10234165;29;20332;-82
2023/05/30 13:46:43;;;;;;;2.20;1.10;;;22.00;15.60;;;;;;10245369;29;20265;-81
2023/05/30 13:51:45;;;;;;;4.05;0.70;;;22.10;14.40;;;;;;10225486;28;20250;-81
2023/05/30 13:56:48;;;;;;;2.17;1.02;;;22.10;12.90;;;;;;10244726;28;20250;-82
2023/05/30 14:01:50;;;;;;;4.25;1.30;;;22.10;17.30;;;;;;10227282;28;20246;-82
2023/05/30 14:06:54;;;;;;;4.30;1.05;;;22.00;14.70;;;;;;10244892;28;20258;-81
2023/05/30 14:11:57;;;;;;;2.83;1.25;;;22.10;14.70;;;;;;10244910;28;20612;-82
2023/05/30 14:17:03;;;;;;;3.22;0.80;;;22.10;16.60;;;;;;10252583;28;20406;-82
2023/05/30 14:22:06;;;;;;;4.07;1.85;;;22.20;14.20;;;;;;10235857;28;20300;-82
2023/05/30 14:27:10;;;;;;;1.48;0.75;;;22.10;16.10;;;;;;10251253;28;20273;-82
2023/05/30 14:32:15;;;;;;;3.08;1.00;;;22.10;15.80;;;;;;10251694;28;20238;-81
2023/05/30 14:37:17;;;;;;;4.93;1.33;;;22.10;13.20;;;;;;10251927;28;20262;-82
2023/05/30 14:42:20;;;;;;;6.13;1.70;;;22.10;15.10;;;;;;10251126;28;20265;-82
2023/05/30 14:47:23;;;;;;;1.65;1.13;;;22.10;18.30;;;;;;10250264;28;20294;-82
2023/05/30 14:52:26;;;;;;;1.45;0.73;;;22.10;16.60;;;;;;10249709;28;20238;-82
2023/05/30 14:57:28;;;;;;;4.18;1.02;;;22.10;19.10;;;;;;10232388;28;20262;-81
2023/05/30 15:02:31;;;;;;;1.17;0.77;;;22.10;14.10;;;;;;10248817;28;20340;-82
2023/05/30 15:07:33;;;;;;;3.58;1.65;;;22.10;19.50;;;;;;10232737;28;20273;-82
2023/05/30 15:12:36;;;;;;;1.60;0.88;;;22.10;18.00;;;;;;10249966;28;20237;-82
2023/05/30 15:17:39;;;;;;;2.55;1.33;;;;;;;;;;10250243;28;20288;-81
2023/05/30 15:22:42;;;;;;;3.00;1.75;;;;;;;;;;10249220;28;20242;-81
2023/05/30 15:27:45;;;;;;;4.05;1.17;;;;;;;;;;10225650;28;20262;-82
2023/05/30 15:32:47;;;;;;;3.75;1.02;;;;;;;;;;10233665;28;20652;-82
2023/05/30 15:37:50;;;;;;;7.57;1.20;;;;;;;;;;10232726;28;20253;-82
2023/05/30 15:42:53;;;;;;;4.20;0.93;;;;;;;;;;10217493;28;20329;-82
2023/05/30 15:47:57;;;;;;;5.40;1.75;;;;;;;;;;10249057;28;20262;-82
2023/05/30 15:53:00;;;;;;;5.47;1.40;;;22.10;16.30;;;;;;10245766;28;20692;-82
2023/05/30 15:58:02;;;;;;;3.90;1.05;;;22.10;21.00;;;;;;10199772;29;20314;-81
2023/05/30 16:03:07;;;;;;;4.25;0.95;;;22.20;20.50;;;;;;10248279;28;20309;-83
2023/05/30 16:08:10;;;;;;;4.25;1.55;;;22.20;20.00;;;;;;10248942;28;20262;-83
2023/05/30 16:13:12;;;;;;;3.08;1.42;;;22.30;21.20;;;;;;10184561;29;20275;-83
2023/05/30 16:18:15;;;;;;;1.60;0.93;;;22.70;19.20;;;;;;10244941;29;20663;-84
2023/05/30 16:23:18;;;;;;;2.38;1.10;;;22.90;21.50;;;;;;10248059;28;20249;-84
2023/05/30 16:28:20;;;;;;;2.10;1.35;;;22.90;22.00;;;;;;10230068;28;20344;-84
2023/05/30 16:33:23;;;;;;;4.10;1.10;;;;;;;;;;10229679;28;20238;-84
2023/05/30 16:38:26;;;;;;;5.05;1.17;;;23.30;16.00;;;;;;10222895;28;20261;-84
2023/05/30 16:43:28;;;;;;;5.47;1.63;;;23.30;15.60;;;;;;10219058;28;20250;-84
2023/05/30 16:48:31;;;;;;;1.70;1.17;;;23.40;15.70;;;;;;10248256;28;20262;-84
2023/05/30 16:53:36;;;;;;;2.45;0.88;;;23.40;16.70;;;;;;10248576;28;20250;-83
2023/05/30 16:58:39;;;;;;;2.28;1.15;;;23.40;16.10;;;;;;10240864;28;20297;-83
2023/05/30 17:03:42;;;;;;;8.50;1.50;;;23.00;14.20;;;;;;10229530;28;20300;-83
2023/05/30 17:08:44;;;;;;;2.45;1.10;;;22.80;13.30;;;;;;10230115;28;20250;-84
2023/05/30 17:13:47;;;;;;;5.47;2.00;;;22.60;15.50;;;;;;10246097;28;20308;-83
2023/05/30 17:18:50;;;;;;;2.85;1.30;;;22.40;14.70;;;;;;10245842;28;20253;-83
2023/05/30 17:23:53;;;;;;;2.50;1.10;;;22.10;14.70;;;;;;10246588;28;20301;-82
2023/05/30 17:28:55;;;;;;;5.15;1.48;;;21.70;15.10;;;;;;10230426;28;20261;-85
2023/05/30 17:33:58;;;;;;;4.53;1.40;;;21.50;15.90;;;;;;10229818;28;20241;-84
2023/05/30 17:39:01;;;;;;;4.20;1.40;;;21.40;16.70;;;;;;10234650;28;20321;-83
2023/05/30 17:44:04;;;;;;;3.40;1.33;;;21.40;29.90;;;;;;10243958;28;20305;-84
2023/05/30 17:49:07;;;;;;;2.58;1.67;;;21.50;49.80;;;;;;10240689;28;20312;-83
2023/05/30 17:54:09;;;;;;;4.30;1.77;;;21.10;24.50;;;;;;10251980;28;20301;-83
2023/05/30 17:59:12;;;;;;;8.50;1.23;;;21.00;32.80;;;;;;10251098;28;20301;-86
2023/05/30 18:04:15;;;;;;;19.85;2.05;;;20.70;28.10;;;;;;10251347;28;20658;-84
2023/05/30 18:09:18;;;;;;;6.25;1.52;;;20.40;39.80;;;;;;10250385;28;20336;-88
2023/05/30 18:14:22;;;;;;;5.38;1.38;;;20.00;33.00;;;;;;10250228;28;20689;-84
2023/05/30 18:19:25;;;;;;;3.22;1.45;;;19.70;29.60;;;;;;10250786;28;20258;-84
2023/05/30 18:24:28;;;;;;;4.30;1.85;;;;;;;;;;10252367;28;20379;-85
2023/05/30 18:29:34;;;;;;;7.72;2.05;;;18.90;27.10;;;;;;10251094;28;20266;-85
2023/05/30 18:34:37;;;;;;;3.97;1.75;;;18.60;28.00;;;;;;10212395;29;20637;-85
2023/05/30 18:39:40;;;;;;;4.32;1.42;;;18.40;31.10;;;;;;10231199;28;20699;-84
2023/05/30 18:44:42;;;;;;;8.15;1.80;;;18.10;32.10;;;;;;10234459;28;20249;-84
2023/05/30 18:49:45;;;;;;;6.78;1.58;;;17.70;45.70;;;;;;10251587;28;20317;-86
2023/05/30 18:54:48;;;;;;;2.67;1.40;;;17.70;47.50;;;;;;10249787;28;20238;-84
2023/05/30 18:59:51;;;;;;;6.55;2.35;;;17.60;68.30;;;;;;10221632;28;20289;-86
2023/05/30 19:04:54;;;;;;;6.00;1.63;;;17.40;68.20;;;;;;10226333;28;20394;-86
2023/05/30 19:09:57;;;;;;;7.20;2.28;;;17.20;79.80;;;;;;10244006;28;20375;-83
2023/05/30 19:15:00;;;;;;;6.95;1.70;;;16.80;81.60;;;;;;10233296;28;20666;-84
2023/05/30 19:20:03;;;;;;;8.88;2.20;;;16.70;90.50;;;;;;10249744;28;20491;-83
2023/05/30 19:25:06;;;;;;;9.50;3.88;;;16.40;87.40;;;;;;10250509;28;20242;-84
2023/05/30 19:30:08;;;;;;;5.43;2.40;;;16.30;92.70;;;;;;10249768;28;20658;-83
2023/05/30 19:35:11;;;;;;;7.35;2.60;;;16.10;94.70;;;;;;10248254;28;20250;-83
2023/05/30 19:40:14;;;;;;;18.08;4.15;;;;;;;;;;10247223;28;20270;-85
2023/05/30 19:45:16;;;;;;;11.73;4.20;;;15.40;94.40;;;;;;10229733;28;20293;-83
2023/05/30 19:50:19;;;;;;;9.75;3.25;;;15.50;98.10;;;;;;10230716;28;20266;-84
2023/05/30 19:55:23;;;;;;;3.17;1.98;;;15.50;99.90;;;;;;10248385;28;20245;-89
2023/05/30 20:00:26;;;;;;;5.82;2.50;;;15.70;99.90;;;;;;10226257;28;20234;-85
2023/05/30 20:05:29;;;;;;;8.43;3.35;;;15.70;99.90;;;;;;10204388;28;20246;-84
2023/05/30 20:10:32;;;;;;;7.30;3.85;;;15.60;99.90;;;;;;9897975;28;10000565;-83
2023/05/30 20:15:34;;;;;;;5.55;2.80;;;15.40;99.90;;;;;;10243942;28;20262;-84
2023/05/30 20:20:37;;;;;;;7.22;2.42;;;15.30;99.90;;;;;;10208178;29;20702;-84
2023/05/30 20:25:40;;;;;;;10.43;3.33;;;15.40;99.90;;;;;;10187226;29;20310;-83
2023/05/30 20:30:44;;;;;;;10.63;3.40;;;15.40;99.90;;;;;;10201553;29;20799;-83
2023/05/30 20:35:48;;;;;;;5.55;2.15;;;15.50;99.90;;;;;;10202674;29;20270;-83
2023/05/30 20:40:50;;;;;;;6.88;1.88;;;15.70;99.90;;;;;;10203482;29;20347;-83
2023/05/30 20:45:53;;;;;;;2.67;1.70;;;15.70;99.90;;;;;;10202375;29;20701;-84
2023/05/30 20:50:56;;;;;;;3.58;2.42;;;15.60;99.90;;;;;;10186465;29;20295;-83
2023/05/30 20:55:58;;;;;;;5.22;1.90;;;15.60;99.90;;;;;;10202859;29;20624;-83
2023/05/30 21:01:01;;;;;;;4.88;1.58;;;15.60;99.90;;;;;;10200327;29;20250;-83
2023/05/30 21:06:04;;;;;;;2.60;1.38;;;15.50;99.90;;;;;;10203388;29;20255;-84
2023/05/30 21:11:06;;;;;;;3.15;2.10;;;15.60;99.90;;;;;;10203471;29;20337;-83
2023/05/30 21:16:09;;;;;;;4.25;1.60;;;15.70;99.90;;;;;;10201286;29;20243;-84
2023/05/30 21:21:11;;;;;;;5.63;1.65;;;15.80;99.90;;;;;;10200306;29;20301;-83
2023/05/30 21:26:14;;;;;;;3.70;1.63;;;15.80;99.90;;;;;;10185046;29;20668;-84
2023/05/30 21:31:16;;;;;;;5.28;1.92;;;15.70;99.90;;;;;;10201425;29;20366;-83
2023/05/30 21:36:23;;;;;;;7.25;2.05;;;15.70;99.90;;;;;;10200480;29;20636;-83
2023/05/30 21:41:26;;;;;;;1.83;1.42;;;15.60;99.90;;;;;;10201051;29;20325;-84
2023/05/30 21:46:29;;;;;;;4.78;2.20;;;15.60;99.90;;;;;;10185339;29;20251;-84
2023/05/30 21:51:31;;;;;;;3.03;1.70;;;15.60;99.90;;;;;;10185474;29;20254;-84
2023/05/30 21:56:34;;;;;;;4.13;1.92;;;15.80;99.90;;;;;;10202125;29;20348;-85
2023/05/30 22:01:36;;;;;;;8.20;1.90;;;15.70;99.90;;;;;;10201830;29;20275;-85
2023/05/30 22:06:39;;;;;;;3.00;1.92;;;15.50;99.90;;;;;;10205271;29;20211;-86
2023/05/30 22:11:42;;;;;;;4.07;2.20;;;15.50;99.90;;;;;;10204201;29;20246;-85
2023/05/30 22:16:44;;;;;;;5.65;1.95;;;15.30;99.90;;;;;;10204970;29;20641;-85
2023/05/30 22:21:47;;;;;;;6.88;1.60;;;15.20;99.90;;;;;;10206035;29;20276;-85
2023/05/30 22:27:06;;;;;;;5.75;2.22;;;14.90;99.90;;;;;;10188899;29;20329;-85
2023/05/30 22:32:08;;;;;;;5.20;2.20;;;14.90;99.90;;;;;;10205241;29;20297;-84
2023/05/30 22:37:11;;;;;;;7.28;2.25;;;14.80;99.90;;;;;;10213232;29;20235;-85
2023/05/30 22:42:15;;;;;;;2.78;1.50;;;14.60;99.90;;;;;;10194999;29;20262;-85
2023/05/30 22:47:17;;;;;;;6.13;1.88;;;14.40;99.90;;;;;;10213198;29;20253;-84
2023/05/30 22:52:20;;;;;;;2.38;1.42;;;14.20;99.90;;;;;;10196221;29;20234;-85
2023/05/30 22:57:23;;;;;;;4.72;2.47;;;14.00;99.90;;;;;;10212559;29;20717;-85
2023/05/30 23:02:26;;;;;;;3.60;1.65;;;14.00;99.90;;;;;;10212670;29;20747;-84
2023/05/30 23:07:28;;;;;;;4.70;1.77;;;14.10;99.90;;;;;;10212180;29;20321;-85
2023/05/30 23:12:31;;;;;;;3.50;1.42;;;14.10;99.90;;;;;;10194120;29;20752;-85
2023/05/30 23:17:33;;;;;;;4.35;2.13;;;13.90;99.90;;;;;;10210795;29;20251;-84
2023/05/30 23:22:36;;;;;;;3.72;1.08;;;13.80;99.90;;;;;;10193961;29;20251;-85
2023/05/30 23:27:38;;;;;;;5.45;2.30;;;13.80;99.90;;;;;;10211208;29;20317;-85
2023/05/30 23:32:41;;;;;;;2.45;1.63;;;13.30;99.90;;;;;;10211218;29;20621;-84
2023/05/30 23:37:44;;;;;;;3.92;1.63;;;13.30;99.90;;;;;;10210845;29;20658;-85
2023/05/30 23:42:47;;;;;;;1.60;1.05;;;13.40;99.90;;;;;;10193905;29;20266;-85
2023/05/30 23:47:50;;;;;;;4.93;1.83;;;13.20;99.90;;;;;;10210048;29;20676;-84
2023/05/30 23:52:52;;;;;;;4.35;2.03;;;13.20;99.90;;;;;;10210633;29;20250;-85
2023/05/30 23:57:55;;;;;;;5.93;2.10;;;12.90;99.90;;;;;;10210738;29;20271;-84
